sensor_id;sensor_type;location;lat;lon;timestamp;temperature;humidity
9385;DHT22;4732;49.340;10.886;2023-08-30T03:01:46;12.30;99.90
9385;DHT22;4732;49.340;10.886;2023-08-30T03:04:11;12.30;99.90
9385;DHT22;4732;49.340;10.886;2023-08-30T03:06:37;12.30;99.90
9385;DHT22;4732;49.340;10.886;2023-08-30T03:09:03;12.40;99.90
9385;DHT22;4732;49.340;10.886;2023-08-30T03:11:29;12.40;99.90
9385;DHT22;4732;49.340;10.886;2023-08-30T03:13:55;12.40;99.90
9385;DHT22;4732;49.340;10.886;2023-08-30T03:16:20;12.40;99.90
9385;DHT22;4732;49.340;10.886;2023-08-30T03:18:46;12.30;99.90
9385;DHT22;4732;49.340;10.886;2023-08-30T03:21:13;12.40;99.90
9385;DHT22;4732;49.340;10.886;2023-08-30T03:23:39;12.30;99.90
9385;DHT22;4732;49.340;10.886;2023-08-30T03:26:09;12.40;99.90
9385;DHT22;4732;49.340;10.886;2023-08-30T03:28:35;12.50;99.90
9385;DHT22;4732;49.340;10.886;2023-08-30T03:31:00;12.50;99.90
9385;DHT22;4732;49.340;10.886;2023-08-30T03:33:26;12.50;99.90
9385;DHT22;4732;49.340;10.886;2023-08-30T03:35:51;12.50;99.90
9385;DHT22;4732;49.340;10.886;2023-08-30T03:38:17;12.50;99.90
9385;DHT22;4732;49.340;10.886;2023-08-30T03:40:42;12.50;99.90
9385;DHT22;4732;49.340;10.886;2023-08-30T03:43:08;12.50;99.90
9385;DHT22;4732;49.340;10.886;2023-08-30T03:45:35;12.40;99.90
9385;DHT22;4732;49.340;10.886;2023-08-30T03:48:01;12.50;99.90
9385;DHT22;4732;49.340;10.886;2023-08-30T03:50:26;12.50;99.90
9385;DHT22;4732;49.340;10.886;2023-08-30T03:52:52;12.50;99.90
9385;DHT22;4732;49.340;10.886;2023-08-30T03:55:17;12.50;99.90
9385;DHT22;4732;49.340;10.886;2023-08-30T03:57:43;12.50;99.90
9385;DHT22;4732;49.340;10.886;2023-08-30T04:00:09;12.50;99.90
9385;DHT22;4732;49.340;10.886;2023-08-30T04:02:36;12.50;99.90
9385;DHT22;4732;49.340;10.886;2023-08-30T04:05:01;12.50;99.90
9385;DHT22;4732;49.340;10.886;2023-08-30T04:07:28;12.50;99.90
9385;DHT22;4732;49.340;10.886;2023-08-30T04:09:54;12.50;99.90
9385;DHT22;4732;49.340;10.886;2023-08-30T04:12:19;12.40;99.90
9385;DHT22;4732;49.340;10.886;2023-08-30T04:14:45;12.30;99.90
9385;DHT22;4732;49.340;10.886;2023-08-30T04:17:10;12.30;99.90
9385;DHT22;4732;49.340;10.886;2023-08-30T04:19:36;12.30;99.90
9385;DHT22;4732;49.340;10.886;2023-08-30T04:22:01;12.30;99.90
9385;DHT22;4732;49.340;10.886;2023-08-30T04:24:28;12.40;99.90
9385;DHT22;4732;49.340;10.886;2023-08-30T04:26:53;12.40;99.90
9385;DHT22;4732;49.340;10.886;2023-08-30T04:29:19;12.40;99.90
9385;DHT22;4732;49.340;10.886;2023-08-30T04:31:45;12.40;99.90
9385;DHT22;4732;49.340;10.886;2023-08-30T04:34:11;12.40;99.90
9385;DHT22;4732;49.340;10.886;2023-08-30T04:36:36;12.40;99.90
9385;DHT22;4732;49.340;10.886;2023-08-30T04:39:02;12.40;99.90
9385;DHT22;4732;49.340;10.886;2023-08-30T04:41:27;12.40;99.90
9385;DHT22;4732;49.340;10.886;2023-08-30T04:43:53;12.40;99.90
9385;DHT22;4732;49.340;10.886;2023-08-30T04:46:18;12.40;99.90
9385;DHT22;4732;49.340;10.886;2023-08-30T04:48:44;12.40;99.90
9385;DHT22;4732;49.340;10.886;2023-08-30T04:51:10;12.40;99.90
9385;DHT22;4732;49.340;10.886;2023-08-30T04:53:36;12.40;99.90
9385;DHT22;4732;49.340;10.886;2023-08-30T04:56:10;12.50;99.90
9385;DHT22;4732;49.340;10.886;2023-08-30T04:58:36;12.50;99.90
9385;DHT22;4732;49.340;10.886;2023-08-30T05:01:01;12.50;99.90
9385;DHT22;4732;49.340;10.886;2023-08-30T05:03:28;12.50;99.90
9385;DHT22;4732;49.340;10.886;2023-08-30T05:05:53;12.50;99.90
9385;DHT22;4732;49.340;10.886;2023-08-30T05:08:19;12.50;99.90
9385;DHT22;4732;49.340;10.886;2023-08-30T05:10:44;12.60;99.90
9385;DHT22;4732;49.340;10.886;2023-08-30T05:13:14;12.60;99.90
9385;DHT22;4732;49.340;10.886;2023-08-30T05:15:39;12.60;99.90
9385;DHT22;4732;49.340;10.886;2023-08-30T05:18:05;12.60;99.90
9385;DHT22;4732;49.340;10.886;2023-08-30T05:20:31;12.70;99.90
9385;DHT22;4732;49.340;10.886;2023-08-30T05:22:56;12.70;99.90
9385;DHT22;4732;49.340;10.886;2023-08-30T05:25:22;12.70;99.90
9385;DHT22;4732;49.340;10.886;2023-08-30T05:27:47;12.80;99.90
9385;DHT22;4732;49.340;10.886;2023-08-30T05:30:13;12.80;99.90
9385;DHT22;4732;49.340;10.886;2023-08-30T05:32:39;12.80;99.90
9385;DHT22;4732;49.340;10.886;2023-08-30T05:35:05;12.80;99.90
9385;DHT22;4732;49.340;10.886;2023-08-30T05:37:30;12.80;99.90
9385;DHT22;4732;49.340;10.886;2023-08-30T05:39:57;12.80;99.90
9385;DHT22;4732;49.340;10.886;2023-08-30T05:42:23;12.80;99.90
9385;DHT22;4732;49.340;10.886;2023-08-30T05:44:48;12.80;99.90
9385;DHT22;4732;49.340;10.886;2023-08-30T05:47:14;12.80;99.90
9385;DHT22;4732;49.340;10.886;2023-08-30T05:49:42;12.80;99.90
9385;DHT22;4732;49.340;10.886;2023-08-30T05:52:07;12.80;99.90
9385;DHT22;4732;49.340;10.886;2023-08-30T05:54:33;12.80;99.90
9385;DHT22;4732;49.340;10.886;2023-08-30T05:56:59;12.80;99.90
9385;DHT22;4732;49.340;10.886;2023-08-30T05:59:25;12.90;99.90
9385;DHT22;4732;49.340;10.886;2023-08-30T06:01:50;12.90;99.90
9385;DHT22;4732;49.340;10.886;2023-08-30T06:04:16;13.00;99.90
9385;DHT22;4732;49.340;10.886;2023-08-30T06:06:41;12.50;99.90
9385;DHT22;4732;49.340;10.886;2023-08-30T06:09:07;13.10;99.90
9385;DHT22;4732;49.340;10.886;2023-08-30T06:11:33;13.10;99.90
9385;DHT22;4732;49.340;10.886;2023-08-30T06:13:58;13.20;99.90
9385;DHT22;4732;49.340;10.886;2023-08-30T06:16:27;13.30;99.90
9385;DHT22;4732;49.340;10.886;2023-08-30T06:18:52;13.40;99.90
9385;DHT22;4732;49.340;10.886;2023-08-30T06:21:18;13.40;99.90
9385;DHT22;4732;49.340;10.886;2023-08-30T06:23:43;13.60;99.90
9385;DHT22;4732;49.340;10.886;2023-08-30T06:26:09;13.60;99.90
9385;DHT22;4732;49.340;10.886;2023-08-30T06:28:34;13.70;99.90
9385;DHT22;4732;49.340;10.886;2023-08-30T06:31:00;13.70;99.90
9385;DHT22;4732;49.340;10.886;2023-08-30T06:33:25;13.70;99.90
9385;DHT22;4732;49.340;10.886;2023-08-30T06:35:51;13.80;99.90
9385;DHT22;4732;49.340;10.886;2023-08-30T06:38:18;13.80;99.90
9385;DHT22;4732;49.340;10.886;2023-08-30T06:40:45;13.90;99.90
9385;DHT22;4732;49.340;10.886;2023-08-30T06:43:11;14.00;99.90
9385;DHT22;4732;49.340;10.886;2023-08-30T06:45:41;14.00;99.90
9385;DHT22;4732;49.340;10.886;2023-08-30T06:48:06;14.00;99.90
9385;DHT22;4732;49.340;10.886;2023-08-30T06:50:33;14.10;99.90
9385;DHT22;4732;49.340;10.886;2023-08-30T06:52:58;14.20;99.90
9385;DHT22;4732;49.340;10.886;2023-08-30T06:55:24;14.20;99.90
9385;DHT22;4732;49.340;10.886;2023-08-30T06:57:49;14.30;99.90
9385;DHT22;4732;49.340;10.886;2023-08-30T07:00:16;14.40;99.90
9385;DHT22;4732;49.340;10.886;2023-08-30T07:02:41;14.50;99.90
9385;DHT22;4732;49.340;10.886;2023-08-30T07:05:13;14.50;99.90
9385;DHT22;4732;49.340;10.886;2023-08-30T07:07:39;14.60;99.90
9385;DHT22;4732;49.340;10.886;2023-08-30T07:10:05;14.70;99.90
9385;DHT22;4732;49.340;10.886;2023-08-30T07:12:31;14.80;99.90
9385;DHT22;4732;49.340;10.886;2023-08-30T07:14:56;14.90;99.90
9385;DHT22;4732;49.340;10.886;2023-08-30T07:17:22;15.00;99.90
9385;DHT22;4732;49.340;10.886;2023-08-30T07:19:49;15.10;99.90
9385;DHT22;4732;49.340;10.886;2023-08-30T07:22:15;15.20;99.90
9385;DHT22;4732;49.340;10.886;2023-08-30T07:24:44;15.20;99.90
9385;DHT22;4732;49.340;10.886;2023-08-30T07:27:10;15.40;99.90
9385;DHT22;4732;49.340;10.886;2023-08-30T07:29:38;15.30;99.90
9385;DHT22;4732;49.340;10.886;2023-08-30T07:32:05;15.50;99.90
9385;DHT22;4732;49.340;10.886;2023-08-30T07:34:31;15.60;99.90
9385;DHT22;4732;49.340;10.886;2023-08-30T07:36:56;15.70;99.90
9385;DHT22;4732;49.340;10.886;2023-08-30T07:39:22;15.80;99.90
9385;DHT22;4732;49.340;10.886;2023-08-30T07:41:47;16.10;99.90
9385;DHT22;4732;49.340;10.886;2023-08-30T07:44:13;16.20;99.90
9385;DHT22;4732;49.340;10.886;2023-08-30T07:46:38;16.30;99.90
9385;DHT22;4732;49.340;10.886;2023-08-30T07:49:04;16.50;99.90
9385;DHT22;4732;49.340;10.886;2023-08-30T07:51:29;16.30;99.90
9385;DHT22;4732;49.340;10.886;2023-08-30T07:53:55;16.30;99.90
9385;DHT22;4732;49.340;10.886;2023-08-30T07:56:20;16.40;99.90
9385;DHT22;4732;49.340;10.886;2023-08-30T07:58:46;16.50;99.90
9385;DHT22;4732;49.340;10.886;2023-08-30T08:01:12;16.60;99.90
9385;DHT22;4732;49.340;10.886;2023-08-30T08:03:37;16.70;99.90
9385;DHT22;4732;49.340;10.886;2023-08-30T08:06:03;16.80;99.90
9385;DHT22;4732;49.340;10.886;2023-08-30T08:08:29;16.80;99.90
9385;DHT22;4732;49.340;10.886;2023-08-30T08:10:55;16.70;99.90
9385;DHT22;4732;49.340;10.886;2023-08-30T08:13:20;16.80;99.90
9385;DHT22;4732;49.340;10.886;2023-08-30T08:15:46;16.60;99.90
9385;DHT22;4732;49.340;10.886;2023-08-30T08:18:11;16.70;99.90
9385;DHT22;4732;49.340;10.886;2023-08-30T08:20:37;16.70;99.90
9385;DHT22;4732;49.340;10.886;2023-08-30T08:23:04;16.70;99.90
9385;DHT22;4732;49.340;10.886;2023-08-30T08:25:30;16.70;99.90
9385;DHT22;4732;49.340;10.886;2023-08-30T08:27:55;16.70;99.90
9385;DHT22;4732;49.340;10.886;2023-08-30T08:30:21;16.70;99.90
9385;DHT22;4732;49.340;10.886;2023-08-30T08:32:47;16.70;99.90
9385;DHT22;4732;49.340;10.886;2023-08-30T08:35:14;16.80;99.90
9385;DHT22;4732;49.340;10.886;2023-08-30T08:37:39;16.80;99.90
9385;DHT22;4732;49.340;10.886;2023-08-30T08:40:05;16.80;99.90
9385;DHT22;4732;49.340;10.886;2023-08-30T08:42:34;16.70;99.90
9385;DHT22;4732;49.340;10.886;2023-08-30T08:45:02;16.70;99.90
9385;DHT22;4732;49.340;10.886;2023-08-30T08:47:30;16.60;99.90
9385;DHT22;4732;49.340;10.886;2023-08-30T08:49:56;16.80;99.90
9385;DHT22;4732;49.340;10.886;2023-08-30T08:52:23;16.70;99.90
9385;DHT22;4732;49.340;10.886;2023-08-30T08:54:50;16.80;99.90
9385;DHT22;4732;49.340;10.886;2023-08-30T08:57:15;16.90;99.90
9385;DHT22;4732;49.340;10.886;2023-08-30T08:59:41;17.00;99.90
9385;DHT22;4732;49.340;10.886;2023-08-30T09:04:33;17.20;99.90
9385;DHT22;4732;49.340;10.886;2023-08-30T09:06:59;17.40;99.90
9385;DHT22;4732;49.340;10.886;2023-08-30T09:09:26;17.50;99.90
9385;DHT22;4732;49.340;10.886;2023-08-30T09:11:51;17.40;99.90
9385;DHT22;4732;49.340;10.886;2023-08-30T09:14:18;17.50;99.90
9385;DHT22;4732;49.340;10.886;2023-08-30T09:16:57;17.50;99.90
9385;DHT22;4732;49.340;10.886;2023-08-30T09:19:24;17.60;99.90
9385;DHT22;4732;49.340;10.886;2023-08-30T09:21:59;17.60;99.90
9385;DHT22;4732;49.340;10.886;2023-08-30T09:24:25;17.80;99.90
9385;DHT22;4732;49.340;10.886;2023-08-30T09:26:52;17.70;99.90
9385;DHT22;4732;49.340;10.886;2023-08-30T09:29:19;17.90;99.90
9385;DHT22;4732;49.340;10.886;2023-08-30T09:31:45;17.90;99.90
9385;DHT22;4732;49.340;10.886;2023-08-30T09:34:11;18.00;99.90
9385;DHT22;4732;49.340;10.886;2023-08-30T09:36:41;18.10;99.90
9385;DHT22;4732;49.340;10.886;2023-08-30T09:39:12;17.90;99.90
9385;DHT22;4732;49.340;10.886;2023-08-30T09:41:42;17.90;99.90
9385;DHT22;4732;49.340;10.886;2023-08-30T09:44:15;17.70;99.90
9385;DHT22;4732;49.340;10.886;2023-08-30T09:46:45;17.50;99.90
9385;DHT22;4732;49.340;10.886;2023-08-30T09:49:12;17.60;99.90
9385;DHT22;4732;49.340;10.886;2023-08-30T09:51:39;17.70;99.90
9385;DHT22;4732;49.340;10.886;2023-08-30T09:54:34;17.90;99.90
9385;DHT22;4732;49.340;10.886;2023-08-30T09:57:01;18.00;99.90
9385;DHT22;4732;49.340;10.886;2023-08-30T09:59:27;18.10;99.90
9385;DHT22;4732;49.340;10.886;2023-08-30T10:01:54;18.20;99.90
9385;DHT22;4732;49.340;10.886;2023-08-30T10:04:20;18.20;99.90
9385;DHT22;4732;49.340;10.886;2023-08-30T10:06:47;18.20;99.90
9385;DHT22;4732;49.340;10.886;2023-08-30T10:09:14;18.30;99.90
9385;DHT22;4732;49.340;10.886;2023-08-30T10:11:40;18.30;99.90
9385;DHT22;4732;49.340;10.886;2023-08-30T10:14:06;18.30;99.90
9385;DHT22;4732;49.340;10.886;2023-08-30T10:16:40;18.30;99.90
9385;DHT22;4732;49.340;10.886;2023-08-30T10:19:11;18.50;99.90
9385;DHT22;4732;49.340;10.886;2023-08-30T10:21:36;18.30;99.90
9385;DHT22;4732;49.340;10.886;2023-08-30T10:24:05;18.40;99.90
9385;DHT22;4732;49.340;10.886;2023-08-30T10:26:32;18.50;99.90
9385;DHT22;4732;49.340;10.886;2023-08-30T10:28:59;18.50;99.90
9385;DHT22;4732;49.340;10.886;2023-08-30T10:31:27;18.60;99.90
9385;DHT22;4732;49.340;10.886;2023-08-30T10:33:53;18.60;99.90
9385;DHT22;4732;49.340;10.886;2023-08-30T10:36:23;18.70;99.90
9385;DHT22;4732;49.340;10.886;2023-08-30T10:38:53;18.80;99.90
9385;DHT22;4732;49.340;10.886;2023-08-30T10:41:21;18.90;99.90
9385;DHT22;4732;49.340;10.886;2023-08-30T10:43:50;18.90;99.90
9385;DHT22;4732;49.340;10.886;2023-08-30T10:46:17;18.90;99.90
9385;DHT22;4732;49.340;10.886;2023-08-30T10:48:42;19.10;99.90
9385;DHT22;4732;49.340;10.886;2023-08-30T10:51:22;19.50;99.90
9385;DHT22;4732;49.340;10.886;2023-08-30T10:53:59;19.80;99.90
9385;DHT22;4732;49.340;10.886;2023-08-30T10:56:31;20.30;99.90
9385;DHT22;4732;49.340;10.886;2023-08-30T10:58:58;20.80;99.90
9385;DHT22;4732;49.340;10.886;2023-08-30T11:01:23;21.20;99.90
9385;DHT22;4732;49.340;10.886;2023-08-30T11:03:49;21.50;99.90
9385;DHT22;4732;49.340;10.886;2023-08-30T11:06:16;21.80;99.90
9385;DHT22;4732;49.340;10.886;2023-08-30T11:08:43;22.00;99.90
9385;DHT22;4732;49.340;10.886;2023-08-30T11:11:10;22.30;99.90
9385;DHT22;4732;49.340;10.886;2023-08-30T11:13:37;21.90;99.90
9385;DHT22;4732;49.340;10.886;2023-08-30T11:16:03;22.40;99.90
9385;DHT22;4732;49.340;10.886;2023-08-30T11:18:39;22.10;99.90
9385;DHT22;4732;49.340;10.886;2023-08-30T11:21:05;21.80;99.90
9385;DHT22;4732;49.340;10.886;2023-08-30T11:23:31;21.40;99.90
9385;DHT22;4732;49.340;10.886;2023-08-30T11:25:58;21.10;99.90
9385;DHT22;4732;49.340;10.886;2023-08-30T11:28:24;21.00;99.90
9385;DHT22;4732;49.340;10.886;2023-08-30T11:30:53;20.90;99.90
9385;DHT22;4732;49.340;10.886;2023-08-30T11:33:20;20.70;99.90
9385;DHT22;4732;49.340;10.886;2023-08-30T11:35:49;20.50;99.90
9385;DHT22;4732;49.340;10.886;2023-08-30T11:38:15;20.60;99.90
9385;DHT22;4732;49.340;10.886;2023-08-30T11:40:40;20.40;99.90
9385;DHT22;4732;49.340;10.886;2023-08-30T11:43:06;20.40;99.90
9385;DHT22;4732;49.340;10.886;2023-08-30T11:45:33;20.90;99.90
9385;DHT22;4732;49.340;10.886;2023-08-30T11:48:01;20.80;99.90
9385;DHT22;4732;49.340;10.886;2023-08-30T11:50:28;21.20;99.90
9385;DHT22;4732;49.340;10.886;2023-08-30T11:52:54;21.30;99.90
9385;DHT22;4732;49.340;10.886;2023-08-30T11:55:21;21.30;99.90
9385;DHT22;4732;49.340;10.886;2023-08-30T11:57:50;21.90;99.90
9385;DHT22;4732;49.340;10.886;2023-08-30T12:00:19;22.20;99.90
9385;DHT22;4732;49.340;10.886;2023-08-30T12:02:46;22.40;99.90
9385;DHT22;4732;49.340;10.886;2023-08-30T12:05:15;22.50;99.90
9385;DHT22;4732;49.340;10.886;2023-08-30T12:07:41;22.40;99.90
9385;DHT22;4732;49.340;10.886;2023-08-30T12:10:07;22.40;99.90
9385;DHT22;4732;49.340;10.886;2023-08-30T12:12:33;21.90;99.90
9385;DHT22;4732;49.340;10.886;2023-08-30T12:15:07;21.80;99.90
9385;DHT22;4732;49.340;10.886;2023-08-30T12:17:35;21.30;99.90
9385;DHT22;4732;49.340;10.886;2023-08-30T12:20:00;21.10;99.90
9385;DHT22;4732;49.340;10.886;2023-08-30T12:22:39;21.30;99.90
9385;DHT22;4732;49.340;10.886;2023-08-30T12:25:16;21.10;99.90
9385;DHT22;4732;49.340;10.886;2023-08-30T12:27:42;21.00;99.90
9385;DHT22;4732;49.340;10.886;2023-08-30T12:30:11;21.30;99.90
9385;DHT22;4732;49.340;10.886;2023-08-30T12:32:37;20.80;99.90
9385;DHT22;4732;49.340;10.886;2023-08-30T12:35:03;20.80;99.90
9385;DHT22;4732;49.340;10.886;2023-08-30T12:37:28;20.80;99.90
9385;DHT22;4732;49.340;10.886;2023-08-30T12:39:54;20.70;99.90
9385;DHT22;4732;49.340;10.886;2023-08-30T12:42:19;20.60;99.90
9385;DHT22;4732;49.340;10.886;2023-08-30T12:44:45;20.40;99.90
9385;DHT22;4732;49.340;10.886;2023-08-30T12:47:11;20.00;99.90
9385;DHT22;4732;49.340;10.886;2023-08-30T12:49:39;20.30;99.90
9385;DHT22;4732;49.340;10.886;2023-08-30T12:52:05;20.40;99.90
9385;DHT22;4732;49.340;10.886;2023-08-30T12:54:31;20.20;99.90
9385;DHT22;4732;49.340;10.886;2023-08-30T12:56:56;19.90;99.90
9385;DHT22;4732;49.340;10.886;2023-08-30T12:59:22;19.90;99.90
9385;DHT22;4732;49.340;10.886;2023-08-30T13:01:47;20.60;99.90
9385;DHT22;4732;49.340;10.886;2023-08-30T13:04:13;20.20;99.90
9385;DHT22;4732;49.340;10.886;2023-08-30T13:06:38;20.20;99.90
9385;DHT22;4732;49.340;10.886;2023-08-30T13:09:04;21.10;99.90
9385;DHT22;4732;49.340;10.886;2023-08-30T13:11:29;21.00;99.90
9385;DHT22;4732;49.340;10.886;2023-08-30T13:13:57;21.20;99.90
9385;DHT22;4732;49.340;10.886;2023-08-30T13:16:24;21.60;99.90
9385;DHT22;4732;49.340;10.886;2023-08-30T13:18:49;21.90;99.90
9385;DHT22;4732;49.340;10.886;2023-08-30T13:21:15;21.70;99.90
9385;DHT22;4732;49.340;10.886;2023-08-30T13:23:40;21.30;99.90
9385;DHT22;4732;49.340;10.886;2023-08-30T13:26:06;21.30;99.90
9385;DHT22;4732;49.340;10.886;2023-08-30T13:28:32;20.80;99.90
9385;DHT22;4732;49.340;10.886;2023-08-30T13:30:57;20.40;99.90
9385;DHT22;4732;49.340;10.886;2023-08-30T13:33:22;20.40;99.90
9385;DHT22;4732;49.340;10.886;2023-08-30T13:35:51;20.20;99.90
9385;DHT22;4732;49.340;10.886;2023-08-30T13:38:17;20.40;99.90
9385;DHT22;4732;49.340;10.886;2023-08-30T13:40:46;20.00;99.90
9385;DHT22;4732;49.340;10.886;2023-08-30T13:43:11;20.30;99.90
9385;DHT22;4732;49.340;10.886;2023-08-30T13:45:37;20.20;99.90
9385;DHT22;4732;49.340;10.886;2023-08-30T13:48:03;20.00;99.90
9385;DHT22;4732;49.340;10.886;2023-08-30T13:50:28;20.10;99.90
9385;DHT22;4732;49.340;10.886;2023-08-30T13:52:57;20.10;99.90
9385;DHT22;4732;49.340;10.886;2023-08-30T13:55:23;19.90;99.90
9385;DHT22;4732;49.340;10.886;2023-08-30T13:57:48;20.00;99.90
9385;DHT22;4732;49.340;10.886;2023-08-30T14:00:14;20.30;99.90
9385;DHT22;4732;49.340;10.886;2023-08-30T14:02:40;20.30;99.90
9385;DHT22;4732;49.340;10.886;2023-08-30T14:05:06;20.50;99.90
9385;DHT22;4732;49.340;10.886;2023-08-30T14:07:32;20.60;99.90
9385;DHT22;4732;49.340;10.886;2023-08-30T14:09:58;21.20;99.90
9385;DHT22;4732;49.340;10.886;2023-08-30T14:12:23;21.00;99.90
9385;DHT22;4732;49.340;10.886;2023-08-30T14:14:49;21.20;99.90
9385;DHT22;4732;49.340;10.886;2023-08-30T14:17:14;21.40;99.90
9385;DHT22;4732;49.340;10.886;2023-08-30T14:19:40;21.30;99.90
9385;DHT22;4732;49.340;10.886;2023-08-30T14:22:05;21.40;99.90
9385;DHT22;4732;49.340;10.886;2023-08-30T14:24:34;21.50;99.90
9385;DHT22;4732;49.340;10.886;2023-08-30T14:27:00;21.60;99.90
9385;DHT22;4732;49.340;10.886;2023-08-30T14:29:26;21.80;99.90
9385;DHT22;4732;49.340;10.886;2023-08-30T14:31:51;21.80;99.90
9385;DHT22;4732;49.340;10.886;2023-08-30T14:34:17;21.90;99.90
9385;DHT22;4732;49.340;10.886;2023-08-30T14:36:43;21.50;99.90
9385;DHT22;4732;49.340;10.886;2023-08-30T14:39:09;21.30;99.90
9385;DHT22;4732;49.340;10.886;2023-08-30T14:41:35;21.20;99.90
9385;DHT22;4732;49.340;10.886;2023-08-30T14:44:04;20.40;99.90
9385;DHT22;4732;49.340;10.886;2023-08-30T14:46:29;20.50;99.90
9385;DHT22;4732;49.340;10.886;2023-08-30T14:48:55;20.30;99.90
9385;DHT22;4732;49.340;10.886;2023-08-30T14:51:21;20.30;99.90
9385;DHT22;4732;49.340;10.886;2023-08-30T14:53:46;20.90;99.90
9385;DHT22;4732;49.340;10.886;2023-08-30T14:56:12;20.80;99.90
9385;DHT22;4732;49.340;10.886;2023-08-30T14:58:38;21.00;99.90
9385;DHT22;4732;49.340;10.886;2023-08-30T15:01:04;21.70;99.90
9385;DHT22;4732;49.340;10.886;2023-08-30T15:03:30;21.30;99.90
9385;DHT22;4732;49.340;10.886;2023-08-30T15:05:56;21.10;99.90
9385;DHT22;4732;49.340;10.886;2023-08-30T15:08:23;20.70;99.90
9385;DHT22;4732;49.340;10.886;2023-08-30T15:10:49;20.40;99.90
9385;DHT22;4732;49.340;10.886;2023-08-30T15:13:16;20.40;99.90
9385;DHT22;4732;49.340;10.886;2023-08-30T15:35:15;20.90;99.90
9385;DHT22;4732;49.340;10.886;2023-08-30T15:37:40;21.30;99.90
9385;DHT22;4732;49.340;10.886;2023-08-30T15:40:06;21.70;99.90
9385;DHT22;4732;49.340;10.886;2023-08-30T15:42:34;21.70;99.90
9385;DHT22;4732;49.340;10.886;2023-08-30T15:45:01;21.70;99.90
9385;DHT22;4732;49.340;10.886;2023-08-30T15:47:28;21.80;99.90
9385;DHT22;4732;49.340;10.886;2023-08-30T15:49:53;22.00;99.90
9385;DHT22;4732;49.340;10.886;2023-08-30T15:52:19;21.90;99.90
9385;DHT22;4732;49.340;10.886;2023-08-30T15:54:44;21.70;99.90
9385;DHT22;4732;49.340;10.886;2023-08-30T15:57:10;21.90;99.90
9385;DHT22;4732;49.340;10.886;2023-08-30T15:59:35;22.60;99.90
9385;DHT22;4732;49.340;10.886;2023-08-30T16:02:01;22.50;99.90
9385;DHT22;4732;49.340;10.886;2023-08-30T16:04:26;21.80;99.90
9385;DHT22;4732;49.340;10.886;2023-08-30T16:06:52;21.30;99.90
9385;DHT22;4732;49.340;10.886;2023-08-30T16:09:17;20.90;99.90
9385;DHT22;4732;49.340;10.886;2023-08-30T16:11:44;20.90;99.90
9385;DHT22;4732;49.340;10.886;2023-08-30T16:14:09;20.60;99.90
9385;DHT22;4732;49.340;10.886;2023-08-30T16:16:35;20.70;99.90
9385;DHT22;4732;49.340;10.886;2023-08-30T16:19:01;20.70;99.90
9385;DHT22;4732;49.340;10.886;2023-08-30T16:21:27;20.50;99.90
9385;DHT22;4732;49.340;10.886;2023-08-30T16:23:52;20.10;99.90
9385;DHT22;4732;49.340;10.886;2023-08-30T16:26:18;20.80;99.90
9385;DHT22;4732;49.340;10.886;2023-08-30T16:28:43;19.60;99.90
9385;DHT22;4732;49.340;10.886;2023-08-30T16:31:10;19.50;99.90
9385;DHT22;4732;49.340;10.886;2023-08-30T16:33:37;20.40;99.90
9385;DHT22;4732;49.340;10.886;2023-08-30T16:36:03;19.40;99.90
9385;DHT22;4732;49.340;10.886;2023-08-30T16:38:29;19.40;99.90
9385;DHT22;4732;49.340;10.886;2023-08-30T16:40:55;19.60;99.90
9385;DHT22;4732;49.340;10.886;2023-08-30T16:43:28;19.80;99.90
9385;DHT22;4732;49.340;10.886;2023-08-30T16:45:53;19.30;99.90
9385;DHT22;4732;49.340;10.886;2023-08-30T16:48:19;19.20;99.90
9385;DHT22;4732;49.340;10.886;2023-08-30T16:50:44;19.40;99.90
9385;DHT22;4732;49.340;10.886;2023-08-30T16:53:10;19.30;99.90
9385;DHT22;4732;49.340;10.886;2023-08-30T16:55:35;18.90;99.90
9385;DHT22;4732;49.340;10.886;2023-08-30T16:58:01;18.90;99.90
9385;DHT22;4732;49.340;10.886;2023-08-30T17:00:26;18.80;99.90
9385;DHT22;4732;49.340;10.886;2023-08-30T17:02:52;19.50;99.90
9385;DHT22;4732;49.340;10.886;2023-08-30T17:05:17;19.50;99.90
9385;DHT22;4732;49.340;10.886;2023-08-30T17:10:10;18.50;99.90
9385;DHT22;4732;49.340;10.886;2023-08-30T17:12:35;18.50;99.90
9385;DHT22;4732;49.340;10.886;2023-08-30T17:15:01;18.30;99.90
9385;DHT22;4732;49.340;10.886;2023-08-30T17:17:26;18.20;99.90
9385;DHT22;4732;49.340;10.886;2023-08-30T17:19:52;18.20;99.90
9385;DHT22;4732;49.340;10.886;2023-08-30T17:22:17;18.10;99.90
9385;DHT22;4732;49.340;10.886;2023-08-30T17:24:43;18.00;99.90
9385;DHT22;4732;49.340;10.886;2023-08-30T17:27:09;18.10;99.90
9385;DHT22;4732;49.340;10.886;2023-08-30T17:29:35;18.00;99.90
9385;DHT22;4732;49.340;10.886;2023-08-30T17:32:01;18.10;99.90
9385;DHT22;4732;49.340;10.886;2023-08-30T17:34:28;17.90;99.90
9385;DHT22;4732;49.340;10.886;2023-08-30T17:36:53;17.80;99.90
9385;DHT22;4732;49.340;10.886;2023-08-30T17:39:35;17.80;99.90
9385;DHT22;4732;49.340;10.886;2023-08-30T17:42:02;17.90;99.90
9385;DHT22;4732;49.340;10.886;2023-08-30T17:44:28;17.80;99.90
9385;DHT22;4732;49.340;10.886;2023-08-30T17:46:53;17.80;99.90
9385;DHT22;4732;49.340;10.886;2023-08-30T17:54:12;17.50;99.90
9385;DHT22;4732;49.340;10.886;2023-08-30T17:56:37;17.40;99.90
9385;DHT22;4732;49.340;10.886;2023-08-30T17:59:03;17.30;99.90
9385;DHT22;4732;49.340;10.886;2023-08-30T18:01:29;17.40;99.90
9385;DHT22;4732;49.340;10.886;2023-08-30T18:03:55;17.20;99.90
9385;DHT22;4732;49.340;10.886;2023-08-30T18:06:21;17.10;99.90
9385;DHT22;4732;49.340;10.886;2023-08-30T18:08:46;17.10;99.90
9385;DHT22;4732;49.340;10.886;2023-08-30T18:21:04;16.90;99.90
9385;DHT22;4732;49.340;10.886;2023-08-30T18:23:30;16.80;99.90
9385;DHT22;4732;49.340;10.886;2023-08-30T18:25:56;16.70;99.90
9385;DHT22;4732;49.340;10.886;2023-08-30T18:28:22;16.60;99.90
9385;DHT22;4732;49.340;10.886;2023-08-30T18:30:49;16.50;99.90
9385;DHT22;4732;49.340;10.886;2023-08-30T18:33:15;16.40;99.90
9385;DHT22;4732;49.340;10.886;2023-08-30T18:35:40;16.40;99.90
9385;DHT22;4732;49.340;10.886;2023-08-30T18:38:06;16.30;99.90
9385;DHT22;4732;49.340;10.886;2023-08-30T18:40:32;16.20;99.90
9385;DHT22;4732;49.340;10.886;2023-08-30T18:42:57;16.20;99.90
9385;DHT22;4732;49.340;10.886;2023-08-30T18:45:23;16.10;99.90
9385;DHT22;4732;49.340;10.886;2023-08-30T18:47:49;16.00;99.90
9385;DHT22;4732;49.340;10.886;2023-08-30T18:50:14;15.90;99.90
9385;DHT22;4732;49.340;10.886;2023-08-30T18:52:40;16.00;99.90
9385;DHT22;4732;49.340;10.886;2023-08-30T18:55:06;15.90;99.90
9385;DHT22;4732;49.340;10.886;2023-08-30T18:57:32;15.80;99.90
9385;DHT22;4732;49.340;10.886;2023-08-30T18:59:58;15.70;99.90
9385;DHT22;4732;49.340;10.886;2023-08-30T19:02:31;15.60;99.90
9385;DHT22;4732;49.340;10.886;2023-08-30T19:04:57;15.60;99.90
9385;DHT22;4732;49.340;10.886;2023-08-30T19:07:23;15.50;99.90
9385;DHT22;4732;49.340;10.886;2023-08-30T19:10:15;15.50;99.90
9385;DHT22;4732;49.340;10.886;2023-08-30T19:12:41;15.60;99.90
9385;DHT22;4732;49.340;10.886;2023-08-30T19:15:07;15.40;99.90
9385;DHT22;4732;49.340;10.886;2023-08-30T19:17:34;15.40;99.90
9385;DHT22;4732;49.340;10.886;2023-08-30T19:20:00;15.40;99.90